createdAt,value
2023-10-15T00:00:39.241Z,12.42
2023-10-15T00:03:27.427Z,12.39
2023-10-15T00:05:55.487Z,12.34
2023-10-15T00:08:23.530Z,12.30
2023-10-15T00:10:51.780Z,12.26
2023-10-15T00:13:19.991Z,12.26
2023-10-15T00:15:48.052Z,12.24
2023-10-15T00:18:16.295Z,12.26
2023-10-15T00:20:44.573Z,12.27
2023-10-15T00:23:14.842Z,12.25
2023-10-15T00:25:48.946Z,12.23
2023-10-15T00:28:17.568Z,12.24
2023-10-15T00:30:45.844Z,12.21
2023-10-15T00:33:14.222Z,12.17
2023-10-15T00:35:51.539Z,12.13
2023-10-15T00:38:20.892Z,12.13
2023-10-15T00:41:02.055Z,12.13
2023-10-15T00:43:31.969Z,12.07
2023-10-15T00:46:01.633Z,12.02
2023-10-15T00:48:35.457Z,12.02
2023-10-15T00:51:12.497Z,12.07
2023-10-15T00:53:51.429Z,12.12
2023-10-15T00:56:21.622Z,12.13
2023-10-15T00:58:53.567Z,12.14
2023-10-15T01:01:24.247Z,12.14
2023-10-15T01:03:55.935Z,12.17
2023-10-15T01:06:28.306Z,12.27
2023-10-15T01:09:00.296Z,12.35
2023-10-15T01:11:31.578Z,12.39
2023-10-15T01:14:00.485Z,12.40
2023-10-15T01:16:30.176Z,12.41
2023-10-15T01:19:13.296Z,12.42
2023-10-15T01:21:54.901Z,12.40
2023-10-15T01:24:24.944Z,12.40
2023-10-15T01:27:13.283Z,12.41
2023-10-15T01:29:42.730Z,12.41
2023-10-15T01:32:12.808Z,12.42
2023-10-15T01:34:46.720Z,12.42
2023-10-15T01:37:24.723Z,12.42
2023-10-15T01:39:54.226Z,12.41
2023-10-15T01:42:28.352Z,12.39
2023-10-15T01:45:15.160Z,12.39
2023-10-15T01:47:50.467Z,12.40
2023-10-15T01:50:25.300Z,12.45
2023-10-15T01:53:03.165Z,12.45
2023-10-15T01:55:31.957Z,12.37
2023-10-15T01:58:04.794Z,12.33
2023-10-15T02:00:36.271Z,12.30
2023-10-15T02:03:04.820Z,12.26
2023-10-15T02:06:02.331Z,12.20
2023-10-15T02:08:30.292Z,12.15
2023-10-15T02:11:00.006Z,12.15
2023-10-15T02:13:29.289Z,12.20
2023-10-15T02:15:57.890Z,12.21
2023-10-15T02:18:31.076Z,12.14
2023-10-15T02:20:59.355Z,12.10
2023-10-15T02:23:28.010Z,12.09
2023-10-15T02:26:02.050Z,12.10
2023-10-15T02:28:33.348Z,12.12
2023-10-15T02:31:11.049Z,12.14
2023-10-15T02:33:40.474Z,12.16
2023-10-15T02:36:11.501Z,12.17
2023-10-15T02:38:53.810Z,12.18
2023-10-15T02:41:42.260Z,12.15
2023-10-15T02:44:19.355Z,12.09
2023-10-15T02:46:51.682Z,12.06
2023-10-15T02:49:19.675Z,12.04
2023-10-15T02:51:49.239Z,12.04
2023-10-15T02:54:20.486Z,12.04
2023-10-15T02:56:48.784Z,12.06
2023-10-15T02:59:18.288Z,12.06
2023-10-15T03:01:47.824Z,12.06
2023-10-15T03:04:34.371Z,12.06
2023-10-15T03:07:21.236Z,12.06
2023-10-15T03:09:50.368Z,12.07
2023-10-15T03:12:19.481Z,12.10
2023-10-15T03:14:47.845Z,12.11
2023-10-15T03:17:25.353Z,12.12
2023-10-15T03:20:11.496Z,12.15
2023-10-15T03:22:39.537Z,12.16
2023-10-15T03:25:14.670Z,12.19
2023-10-15T03:27:47.919Z,12.24
2023-10-15T03:30:16.354Z,12.26
2023-10-15T03:32:47.466Z,12.26
2023-10-15T03:35:19.796Z,12.27
2023-10-15T03:37:49.042Z,12.28
2023-10-15T03:40:34.136Z,12.29
2023-10-15T03:43:08.319Z,12.29
2023-10-15T03:45:42.471Z,12.28
2023-10-15T03:48:15.919Z,12.28
2023-10-15T03:50:54.957Z,12.27
2023-10-15T03:53:29.480Z,12.26
2023-10-15T03:56:02.776Z,12.25
2023-10-15T03:58:32.956Z,12.25
2023-10-15T04:01:18.252Z,12.24
2023-10-15T04:03:49.737Z,12.21
2023-10-15T04:06:18.649Z,12.20
2023-10-15T04:09:05.387Z,12.20
2023-10-15T04:11:43.829Z,12.21
2023-10-15T04:14:22.000Z,12.21
2023-10-15T04:16:52.066Z,12.24
2023-10-15T04:19:20.263Z,12.29
2023-10-15T04:21:48.384Z,12.36
2023-10-15T04:24:23.105Z,12.43
2023-10-15T04:26:51.601Z,12.48
2023-10-15T04:29:19.772Z,12.52
2023-10-15T04:32:05.516Z,12.58
2023-10-15T04:34:34.192Z,12.63
2023-10-15T04:37:28.527Z,12.67
2023-10-15T04:40:10.633Z,12.69
2023-10-15T04:42:50.442Z,12.73
2023-10-15T04:45:25.912Z,12.76
2023-10-15T04:48:00.820Z,12.79
2023-10-15T04:50:36.961Z,12.81
2023-10-15T04:53:14.790Z,12.81
2023-10-15T04:55:44.180Z,12.82
2023-10-15T04:58:12.504Z,12.85
2023-10-15T05:00:45.262Z,12.87
2023-10-15T05:03:14.024Z,12.89
2023-10-15T05:05:43.881Z,12.91
2023-10-15T05:08:12.823Z,12.92
2023-10-15T05:10:52.415Z,12.91
2023-10-15T05:13:21.607Z,12.92
2023-10-15T05:15:50.840Z,12.96
2023-10-15T05:18:21.995Z,13.04
2023-10-15T05:20:51.217Z,13.05
2023-10-15T05:23:20.861Z,13.08
2023-10-15T05:25:51.283Z,13.18
2023-10-15T05:28:20.229Z,13.25
2023-10-15T05:30:48.299Z,13.27
2023-10-15T05:33:17.449Z,13.29
2023-10-15T05:35:48.494Z,13.32
2023-10-15T05:38:18.472Z,13.39
2023-10-15T05:40:46.742Z,13.45
2023-10-15T05:43:15.052Z,13.57
2023-10-15T05:45:47.327Z,13.67
2023-10-15T05:48:18.829Z,13.74
2023-10-15T05:50:49.161Z,13.82
2023-10-15T05:53:18.120Z,13.89
2023-10-15T05:55:46.746Z,13.95
2023-10-15T05:58:15.012Z,14.03
2023-10-15T06:00:43.186Z,14.10
2023-10-15T06:03:11.862Z,14.17
2023-10-15T06:05:40.728Z,14.24
2023-10-15T06:08:09.817Z,14.31
2023-10-15T06:10:38.326Z,14.42
2023-10-15T06:13:06.535Z,14.52
2023-10-15T06:15:34.767Z,14.63
2023-10-15T06:18:03.036Z,14.74
2023-10-15T06:20:31.338Z,14.84
2023-10-15T06:23:05.319Z,14.93
2023-10-15T06:25:34.015Z,15.04
2023-10-15T06:28:03.001Z,15.16
2023-10-15T06:30:31.194Z,15.28
2023-10-15T06:32:59.606Z,15.42
2023-10-15T06:35:28.211Z,15.59
2023-10-15T06:37:59.679Z,15.77
2023-10-15T06:40:29.927Z,15.92
2023-10-15T06:43:02.318Z,16.05
2023-10-15T06:45:33.097Z,16.15
2023-10-15T06:48:03.142Z,16.26
2023-10-15T06:50:32.095Z,16.26
2023-10-15T06:53:06.574Z,16.17
2023-10-15T06:55:35.160Z,16.13
2023-10-15T06:58:03.577Z,16.17
2023-10-15T07:00:33.337Z,16.18
2023-10-15T07:03:01.795Z,16.66
2023-10-15T07:05:30.130Z,17.09
2023-10-15T07:07:58.739Z,17.45
2023-10-15T07:10:27.280Z,17.64
2023-10-15T07:12:58.685Z,17.72
2023-10-15T07:15:26.862Z,17.77
2023-10-15T07:17:55.564Z,17.49
2023-10-15T07:20:28.966Z,17.13
2023-10-15T07:22:58.685Z,16.70
2023-10-15T07:25:30.174Z,16.21
2023-10-15T07:27:59.185Z,15.89
2023-10-15T07:30:27.374Z,15.67
2023-10-15T07:32:59.368Z,15.44
2023-10-15T07:35:28.944Z,15.25
2023-10-15T07:37:58.337Z,15.01
2023-10-15T07:40:28.160Z,14.81
2023-10-15T07:43:00.991Z,14.61
2023-10-15T07:45:31.037Z,14.36
2023-10-15T07:48:03.702Z,14.21
2023-10-15T07:50:35.422Z,14.10
2023-10-15T07:53:05.362Z,14.00
2023-10-15T07:55:34.185Z,13.81
2023-10-15T07:58:02.642Z,13.67
2023-10-15T08:00:31.954Z,13.61
2023-10-15T08:03:02.405Z,13.57
2023-10-15T08:05:34.429Z,13.55
2023-10-15T08:08:05.673Z,13.54
2023-10-15T08:10:36.920Z,13.52
2023-10-15T08:13:06.681Z,13.53
2023-10-15T08:15:39.952Z,13.51
2023-10-15T08:18:08.676Z,13.44
2023-10-15T08:20:36.882Z,13.33
2023-10-15T08:23:05.001Z,13.28
2023-10-15T08:25:37.686Z,13.30
2023-10-15T08:28:05.926Z,13.36
2023-10-15T08:30:34.606Z,13.39
2023-10-15T08:33:05.328Z,13.43
2023-10-15T08:35:34.428Z,13.47
2023-10-15T08:38:02.730Z,13.49
2023-10-15T08:40:34.273Z,13.50
2023-10-15T08:43:12.205Z,13.51
2023-10-15T08:45:43.875Z,13.50
2023-10-15T08:48:12.764Z,13.56
2023-10-15T08:50:41.687Z,13.62
2023-10-15T08:53:10.297Z,13.66
2023-10-15T08:55:38.937Z,13.65
2023-10-15T08:58:08.486Z,13.68
2023-10-15T09:00:40.628Z,13.68
2023-10-15T09:03:15.917Z,13.66
2023-10-15T09:05:44.765Z,13.68
2023-10-15T09:08:15.377Z,13.72
2023-10-15T09:10:44.383Z,13.78
2023-10-15T09:13:17.832Z,13.81
2023-10-15T09:15:47.748Z,13.82
2023-10-15T09:18:17.769Z,13.88
2023-10-15T09:20:48.015Z,13.92
2023-10-15T09:23:17.132Z,13.97
2023-10-15T09:25:46.067Z,14.02
2023-10-15T09:28:14.173Z,14.09
2023-10-15T09:30:42.149Z,14.16
2023-10-15T09:33:14.033Z,14.22
2023-10-15T09:35:43.149Z,14.26
2023-10-15T09:38:15.839Z,14.25
2023-10-15T09:40:47.861Z,14.22
2023-10-15T09:43:16.772Z,14.20
2023-10-15T09:45:44.776Z,14.17
2023-10-15T09:48:12.958Z,14.18
2023-10-15T09:50:43.021Z,14.18
2023-10-15T09:53:11.972Z,14.16
2023-10-15T09:55:43.705Z,14.19
2023-10-15T09:58:13.935Z,14.22
2023-10-15T10:00:56.170Z,14.24
2023-10-15T10:03:39.728Z,14.23
2023-10-15T10:06:11.060Z,14.23
2023-10-15T10:08:45.120Z,14.22
2023-10-15T10:11:24.192Z,14.24
2023-10-15T10:13:58.490Z,14.28
2023-10-15T10:16:28.726Z,14.31
2023-10-15T10:18:57.159Z,14.32
2023-10-15T10:21:29.406Z,14.32
2023-10-15T10:24:00.240Z,14.32
2023-10-15T10:26:28.983Z,14.32
2023-10-15T10:28:58.511Z,14.32
2023-10-15T10:31:27.695Z,14.32
2023-10-15T10:33:56.268Z,14.34
2023-10-15T10:36:29.170Z,14.37
2023-10-15T10:39:09.219Z,14.38
2023-10-15T10:41:56.406Z,14.41
2023-10-15T10:44:27.677Z,14.42
2023-10-15T10:46:59.537Z,14.46
2023-10-15T10:49:38.929Z,14.47
2023-10-15T10:52:07.221Z,14.49
2023-10-15T10:54:37.740Z,14.54
2023-10-15T10:57:08.508Z,14.59
2023-10-15T10:59:41.893Z,14.64
2023-10-15T11:02:15.363Z,14.67
2023-10-15T11:04:44.416Z,14.71
2023-10-15T11:07:14.577Z,14.71
2023-10-15T11:09:42.921Z,14.77
2023-10-15T11:12:11.267Z,14.92
2023-10-15T11:14:41.515Z,15.05
2023-10-15T11:17:10.143Z,15.13
2023-10-15T11:19:39.522Z,15.15
2023-10-15T11:22:07.708Z,15.12
2023-10-15T11:24:35.834Z,15.14
2023-10-15T11:27:08.081Z,15.16
2023-10-15T11:29:36.579Z,15.17
2023-10-15T11:32:08.041Z,15.15
2023-10-15T11:34:36.684Z,15.09
2023-10-15T11:37:07.248Z,15.08
2023-10-15T11:39:39.716Z,15.12
2023-10-15T11:42:09.203Z,15.19
2023-10-15T11:44:38.313Z,15.28
2023-10-15T11:47:26.135Z,15.26
2023-10-15T12:05:21.866Z,15.02
2023-10-15T12:07:51.650Z,14.78
2023-10-15T12:10:23.113Z,14.63
2023-10-15T12:12:52.088Z,14.47
2023-10-15T12:15:20.318Z,14.30
2023-10-15T12:17:49.050Z,14.23
2023-10-15T12:20:20.632Z,14.17
2023-10-15T12:22:49.352Z,14.08
2023-10-15T12:25:17.561Z,13.91
2023-10-15T12:27:45.835Z,13.76
2023-10-15T12:30:28.820Z,13.63
2023-10-15T12:32:59.753Z,13.51
2023-10-15T12:35:28.842Z,13.44
2023-10-15T12:38:03.801Z,13.44
2023-10-15T12:40:33.473Z,13.43
2023-10-15T12:43:10.135Z,13.41
2023-10-15T12:45:41.480Z,13.38
2023-10-15T12:48:09.836Z,13.36
2023-10-15T12:50:38.573Z,13.35
2023-10-15T12:53:06.839Z,13.30
2023-10-15T12:55:35.610Z,13.26
2023-10-15T12:58:04.262Z,13.24
2023-10-15T13:00:34.179Z,13.20
2023-10-15T13:03:04.794Z,13.16
2023-10-15T13:05:34.249Z,13.17
2023-10-15T13:08:04.542Z,13.12
2023-10-15T13:10:33.733Z,13.03
2023-10-15T13:13:02.760Z,12.97
2023-10-15T13:15:31.057Z,12.92
2023-10-15T13:18:00.624Z,12.88
2023-10-15T13:20:29.085Z,12.85
2023-10-15T13:22:57.525Z,12.83
2023-10-15T13:25:25.714Z,12.85
2023-10-15T13:27:53.949Z,12.87
2023-10-15T13:30:23.842Z,12.86
2023-10-15T13:32:52.312Z,12.88
2023-10-15T13:35:20.842Z,12.87
2023-10-15T13:37:49.511Z,12.80
2023-10-15T13:40:20.116Z,12.76
2023-10-15T13:42:49.207Z,12.74
2023-10-15T13:45:19.553Z,12.76
2023-10-15T13:47:48.233Z,12.76
2023-10-15T13:50:19.926Z,12.77
2023-10-15T13:52:48.986Z,12.75
2023-10-15T13:55:17.723Z,12.75
2023-10-15T13:57:46.088Z,12.79
2023-10-15T14:00:20.956Z,12.84
2023-10-15T14:02:50.531Z,12.84
2023-10-15T14:05:20.014Z,12.79
2023-10-15T14:07:53.774Z,12.80
2023-10-15T14:10:22.057Z,12.80
2023-10-15T14:12:57.246Z,12.81
2023-10-15T14:15:28.488Z,12.75
2023-10-15T14:17:56.620Z,12.67
2023-10-15T14:20:24.837Z,12.62
2023-10-15T14:22:55.954Z,12.58
2023-10-15T14:25:24.293Z,12.55
2023-10-15T14:27:52.438Z,12.50
2023-10-15T14:30:20.865Z,12.46
2023-10-15T14:32:51.231Z,12.45
2023-10-15T14:35:20.043Z,12.45
2023-10-15T14:37:48.287Z,12.40
2023-10-15T14:40:16.415Z,12.35
2023-10-15T14:42:46.043Z,12.29
2023-10-15T14:45:17.440Z,12.25
2023-10-15T14:47:45.779Z,12.19
2023-10-15T14:50:14.539Z,12.13
2023-10-15T14:52:43.266Z,12.05
2023-10-15T14:55:12.165Z,11.97
2023-10-15T14:57:40.339Z,11.96
2023-10-15T15:00:09.669Z,12.00
2023-10-15T15:02:37.987Z,11.98
2023-10-15T15:05:06.452Z,11.96
2023-10-15T15:07:34.555Z,11.92
2023-10-15T15:10:03.153Z,11.94
2023-10-15T15:12:31.525Z,11.94
2023-10-15T15:14:59.903Z,11.97
2023-10-15T15:17:28.183Z,11.96
2023-10-15T15:19:56.657Z,11.89
2023-10-15T15:22:24.782Z,11.84
2023-10-15T15:24:53.521Z,11.81
2023-10-15T15:27:21.821Z,11.79
2023-10-15T15:29:50.402Z,11.78
2023-10-15T15:32:18.583Z,11.80
2023-10-15T15:34:47.239Z,11.80
2023-10-15T15:37:15.764Z,11.77
2023-10-15T15:39:44.850Z,11.76
2023-10-15T15:42:13.052Z,11.79
2023-10-15T15:44:41.282Z,11.79
2023-10-15T15:47:10.123Z,11.73
2023-10-15T15:49:38.523Z,11.71
2023-10-15T15:52:10.829Z,11.66
2023-10-15T15:54:39.386Z,11.65
2023-10-15T15:57:09.504Z,11.64
2023-10-15T15:59:38.100Z,11.62
2023-10-15T16:02:10.308Z,11.59
2023-10-15T16:04:38.669Z,11.53
2023-10-15T16:07:06.897Z,11.48
2023-10-15T16:09:36.117Z,11.44
2023-10-15T16:12:04.359Z,11.40
2023-10-15T16:14:34.159Z,11.39
2023-10-15T16:17:02.531Z,11.35
2023-10-15T16:19:31.312Z,11.31
2023-10-15T16:21:59.389Z,11.26
2023-10-15T16:24:27.593Z,11.22
2023-10-15T16:26:55.827Z,11.16
2023-10-15T16:29:24.025Z,11.14
2023-10-15T16:31:52.314Z,11.10
2023-10-15T16:34:24.752Z,11.08
2023-10-15T16:36:54.143Z,11.04
2023-10-15T16:39:23.638Z,11.04
2023-10-15T16:41:51.832Z,11.02
2023-10-15T16:44:20.858Z,11.03
2023-10-15T16:46:49.203Z,11.04
2023-10-15T16:49:17.534Z,11.03
2023-10-15T16:51:47.171Z,11.03
2023-10-15T16:54:15.415Z,11.06
2023-10-15T16:56:43.565Z,11.05
2023-10-15T16:59:12.961Z,11.09
2023-10-15T17:01:43.946Z,11.12
2023-10-15T17:04:12.070Z,11.12
2023-10-15T17:06:40.262Z,11.12
2023-10-15T17:09:10.206Z,11.10
2023-10-15T17:11:38.640Z,11.12
2023-10-15T17:14:07.450Z,11.15
2023-10-15T17:16:35.548Z,11.14
2023-10-15T17:19:03.692Z,11.06
2023-10-15T17:21:34.784Z,11.04
2023-10-15T17:24:03.280Z,11.01
2023-10-15T17:26:31.508Z,10.94
2023-10-15T17:29:00.824Z,10.88
2023-10-15T17:31:29.019Z,10.85
2023-10-15T17:33:57.108Z,10.76
2023-10-15T17:36:29.316Z,10.69
2023-10-15T17:39:03.503Z,10.73
2023-10-15T17:41:31.744Z,10.74
2023-10-15T17:43:59.913Z,10.80
2023-10-15T17:46:31.476Z,10.77
2023-10-15T17:48:59.719Z,10.69
2023-10-15T17:51:30.673Z,10.64
2023-10-15T17:53:59.198Z,10.61
2023-10-15T17:56:28.339Z,10.57
2023-10-15T17:59:01.622Z,10.49
2023-10-15T18:01:31.214Z,10.44
2023-10-15T18:03:59.473Z,10.37
2023-10-15T18:06:27.882Z,10.28
2023-10-15T18:08:56.113Z,10.24
2023-10-15T18:11:24.664Z,10.19
2023-10-15T18:13:54.137Z,10.09
2023-10-15T18:16:23.411Z,10.03
2023-10-15T18:18:55.419Z,10.04
2023-10-15T18:21:24.400Z,10.02
2023-10-15T18:23:52.589Z,9.93
2023-10-15T18:26:22.413Z,9.93
2023-10-15T18:28:52.367Z,9.86
2023-10-15T18:31:23.415Z,9.84
2023-10-15T18:33:54.759Z,9.80
2023-10-15T18:36:28.335Z,9.70
2023-10-15T18:39:00.477Z,9.65
2023-10-15T18:41:29.949Z,9.56
2023-10-15T18:43:59.843Z,9.50
2023-10-15T18:46:28.141Z,9.49
2023-10-15T18:48:57.918Z,9.50
2023-10-15T18:51:36.327Z,9.43
2023-10-15T18:54:05.769Z,9.43
2023-10-15T18:56:36.346Z,9.43
2023-10-15T18:59:04.793Z,9.45
2023-10-15T19:01:33.333Z,9.49
2023-10-15T19:04:01.792Z,9.48
2023-10-15T19:06:30.688Z,9.41
2023-10-15T19:08:59.032Z,9.38
2023-10-15T19:11:28.577Z,9.34
2023-10-15T19:13:58.612Z,9.29
2023-10-15T19:16:26.869Z,9.24
2023-10-15T19:18:55.634Z,9.22
2023-10-15T19:21:25.849Z,9.24
2023-10-15T19:23:54.382Z,9.20
2023-10-15T19:26:23.273Z,9.19
2023-10-15T19:28:53.705Z,9.16
2023-10-15T19:31:23.209Z,9.15
2023-10-15T19:33:51.691Z,9.15
2023-10-15T19:36:23.219Z,9.09
2023-10-15T19:38:51.582Z,9.12
2023-10-15T19:41:20.404Z,9.16
2023-10-15T19:43:48.618Z,9.13
2023-10-15T19:46:16.839Z,9.14
2023-10-15T19:48:45.046Z,9.21
2023-10-15T19:51:19.351Z,9.21
2023-10-15T19:53:49.106Z,9.17
2023-10-15T19:56:17.249Z,9.14
2023-10-15T19:58:47.728Z,9.10
2023-10-15T20:01:16.471Z,9.11
2023-10-15T20:04:02.816Z,9.10
2023-10-15T20:06:34.843Z,9.06
2023-10-15T20:09:10.845Z,9.11
2023-10-15T20:11:40.042Z,9.13
2023-10-15T20:14:08.330Z,9.10
2023-10-15T20:16:37.024Z,9.11
2023-10-15T20:19:06.820Z,9.11
2023-10-15T20:21:37.561Z,9.09
2023-10-15T20:24:07.270Z,9.10
2023-10-15T20:26:36.391Z,9.09
2023-10-15T20:29:04.648Z,9.12
2023-10-15T20:31:32.842Z,9.04
2023-10-15T20:34:05.118Z,9.04
2023-10-15T20:36:35.691Z,8.96
2023-10-15T20:39:07.806Z,8.94
2023-10-15T20:41:38.741Z,8.91
2023-10-15T20:44:07.020Z,8.83
2023-10-15T20:46:35.463Z,8.76
2023-10-15T20:49:06.198Z,8.76
2023-10-15T20:51:35.081Z,8.76
2023-10-15T20:54:04.443Z,8.76
2023-10-15T20:56:32.602Z,8.71
2023-10-15T20:59:00.704Z,8.65
2023-10-15T21:01:29.079Z,8.63
2023-10-15T21:03:57.356Z,8.58
2023-10-15T21:06:26.418Z,8.54
2023-10-15T21:08:54.633Z,8.59
2023-10-15T21:11:22.791Z,8.63
2023-10-15T21:13:52.404Z,8.62
2023-10-15T21:16:20.678Z,8.52
2023-10-15T21:18:48.874Z,8.42
2023-10-15T21:21:17.065Z,8.38
2023-10-15T21:23:45.249Z,8.36
2023-10-15T21:26:13.347Z,8.27
2023-10-15T21:28:41.728Z,8.21
2023-10-15T21:31:10.036Z,8.24
2023-10-15T21:33:38.295Z,8.18
2023-10-15T21:36:06.959Z,8.09
2023-10-15T21:38:35.014Z,8.01
2023-10-15T21:41:05.430Z,8.02
2023-10-15T21:43:33.472Z,8.00
2023-10-15T21:46:01.766Z,7.98
2023-10-15T21:48:29.877Z,7.94
2023-10-15T21:50:57.969Z,7.87
2023-10-15T21:53:26.099Z,7.79
2023-10-15T21:55:54.362Z,7.76
2023-10-15T21:58:22.458Z,7.66
2023-10-15T22:00:53.410Z,7.56
2023-10-15T22:03:21.735Z,7.51
2023-10-15T22:05:49.960Z,7.45
2023-10-15T22:08:18.653Z,7.43
2023-10-15T22:10:46.809Z,7.43
2023-10-15T22:13:19.697Z,7.40
2023-10-15T22:15:55.910Z,7.35
2023-10-15T22:18:24.581Z,7.33
2023-10-15T22:20:53.916Z,7.32
2023-10-15T22:23:22.655Z,7.31
2023-10-15T22:25:53.118Z,7.27
2023-10-15T22:28:26.551Z,7.22
2023-10-15T22:30:56.319Z,7.15
2023-10-15T22:33:28.216Z,7.09
2023-10-15T22:35:56.360Z,7.05
2023-10-15T22:38:24.458Z,7.02
2023-10-15T22:40:53.190Z,6.97
2023-10-15T22:43:23.100Z,6.95
2023-10-15T22:45:53.122Z,6.98
2023-10-15T22:48:21.377Z,7.02
2023-10-15T22:50:49.533Z,7.07
2023-10-15T22:53:18.213Z,7.11
2023-10-15T22:55:47.720Z,7.17
2023-10-15T22:58:19.242Z,7.21
2023-10-15T23:00:51.383Z,7.24
2023-10-15T23:03:21.296Z,7.29
2023-10-15T23:05:51.281Z,7.33
2023-10-15T23:08:19.737Z,7.35
2023-10-15T23:10:47.916Z,7.35
2023-10-15T23:13:18.956Z,7.33
2023-10-15T23:15:48.710Z,7.30
2023-10-15T23:18:22.113Z,7.23
2023-10-15T23:20:53.548Z,7.18
2023-10-15T23:23:24.454Z,7.11
2023-10-15T23:25:53.684Z,7.04
2023-10-15T23:28:25.283Z,7.04
2023-10-15T23:30:57.679Z,7.05
2023-10-15T23:33:30.467Z,7.05
2023-10-15T23:35:59.760Z,7.05
2023-10-15T23:38:28.335Z,7.00
2023-10-15T23:40:56.536Z,6.95
2023-10-15T23:43:25.592Z,6.92
2023-10-15T23:46:05.865Z,6.92
2023-10-15T23:48:38.588Z,6.96
2023-10-15T23:51:14.286Z,6.97
2023-10-15T23:53:44.383Z,6.97
2023-10-15T23:56:24.104Z,6.92
2023-10-15T23:58:57.547Z,6.88
